Time;durP1;ratioP1;P1;durP2;ratioP2;P2;SDS_P1;SDS_P2;PMS_P1;PMS_P2;Temp;Humidity;BMP_temperature;BMP_pressure;BME280_temperature;BME280_humidity;BME280_pressure;Samples;Min_cycle;Max_cycle;Signal;HPM_P1;HPM_P2
2022/12/07 00:00:26;;;;;;;18.97;13.80;;;;;;;2.66;100.00;101674.09;5268365;28;20025;-77
2022/12/07 00:02:57;;;;;;;20.60;14.30;;;;;;;2.60;100.00;101668.75;5286219;28;20039;-77
2022/12/07 00:05:29;;;;;;;21.37;15.47;;;;;;;2.53;100.00;101666.81;5286079;28;20537;-77
2022/12/07 00:08:01;;;;;;;24.95;14.98;;;;;;;2.51;100.00;101663.28;5286421;28;20055;-76
2022/12/07 00:10:35;;;;;;;19.37;14.77;;;;;;;2.43;100.00;101663.03;5285870;28;20033;-76
2022/12/07 00:13:06;;;;;;;21.55;16.65;;;;;;;2.41;100.00;101662.09;5286069;28;20175;-76
2022/12/07 00:15:37;;;;;;;20.53;15.27;;;;;;;2.40;100.00;101664.59;5286300;28;20132;-76
2022/12/07 00:18:09;;;;;;;25.00;15.00;;;;;;;2.34;100.00;101658.44;5285876;28;20036;-77
2022/12/07 00:20:40;;;;;;;22.80;15.03;;;;;;;2.29;100.00;101654.81;5285652;28;20127;-77
2022/12/07 00:23:11;;;;;;;20.33;14.97;;;;;;;2.24;100.00;101651.22;5285709;28;20100;-77
2022/12/07 00:25:43;;;;;;;30.97;16.53;;;;;;;2.26;100.00;101654.72;5285798;28;20089;-76
2022/12/07 00:28:14;;;;;;;19.53;16.30;;;;;;;2.22;100.00;101649.41;5285692;28;20031;-76
2022/12/07 00:30:45;;;;;;;18.47;15.60;;;;;;;2.15;100.00;101641.47;5286160;28;20111;-77
2022/12/07 00:33:17;;;;;;;21.70;15.07;;;;;;;2.14;100.00;101643.97;5268383;28;20075;-77
2022/12/07 00:35:55;;;;;;;23.83;15.70;;;;;;;2.19;100.00;101638.19;5285484;28;20379;-77
2022/12/07 00:38:31;;;;;;;25.38;15.90;;;;;;;2.23;100.00;101641.75;5285620;28;20363;-77
2022/12/07 00:41:05;;;;;;;19.42;15.25;;;;;;;2.22;100.00;101634.84;5285672;28;20452;-76
2022/12/07 00:43:36;;;;;;;23.67;15.40;;;;;;;2.17;100.00;101639.84;5284884;28;20127;-77
2022/12/07 00:46:08;;;;;;;22.90;16.10;;;;;;;2.20;100.00;101641.63;5285376;28;20465;-76
2022/12/07 00:48:40;;;;;;;19.90;14.87;;;;;;;2.19;100.00;101643.34;5285797;28;20111;-77
2022/12/07 00:51:12;;;;;;;26.37;16.90;;;;;;;2.21;100.00;101645.06;5285778;28;20056;-77
2022/12/07 00:53:44;;;;;;;21.90;16.15;;;;;;;2.20;100.00;101646.78;5285244;28;20108;-76
2022/12/07 00:56:18;;;;;;;22.30;16.73;;;;;;;2.19;100.00;101643.34;5284950;28;20116;-76
2022/12/07 00:58:51;;;;;;;23.25;16.90;;;;;;;2.20;100.00;101649.34;5285153;28;20475;-78
2022/12/07 01:01:25;;;;;;;24.35;17.10;;;;;;;2.15;100.00;101640.59;5284708;28;20061;-77
2022/12/07 01:03:57;;;;;;;26.50;17.08;;;;;;;2.08;100.00;101642.09;5284665;28;20038;-77
2022/12/07 01:06:29;;;;;;;18.90;15.50;;;;;;;2.08;100.00;101643.78;5284666;28;20390;-77
2022/12/07 01:09:03;;;;;;;21.88;15.77;;;;;;;2.00;100.00;101638.38;5284881;28;20297;-76
2022/12/07 01:11:34;;;;;;;23.77;15.25;;;;;;;1.97;100.00;101639.13;5284750;28;20036;-77
2022/12/07 01:14:06;;;;;;;21.37;15.33;;;;;;;1.95;100.00;101645.03;5284857;28;20035;-77
2022/12/07 01:16:38;;;;;;;19.60;14.60;;;;;;;1.90;100.00;101638.84;5267609;28;20032;-78
2022/12/07 01:19:10;;;;;;;21.67;16.05;;;;;;;1.87;100.00;101641.28;5284657;28;20415;-78
2022/12/07 01:21:41;;;;;;;24.77;15.87;;;;;;;1.90;100.00;101629.44;5284734;28;20040;-77
2022/12/07 01:24:12;;;;;;;20.33;16.20;;;;;;;1.92;100.00;101639.78;5285289;28;20036;-77
2022/12/07 01:26:44;;;;;;;18.90;15.00;;;;;;;1.92;100.00;101640.66;5284511;28;20060;-78
2022/12/07 01:29:15;;;;;;;22.20;16.67;;;;;;;2.01;100.00;101645.25;5284975;28;20032;-78
2022/12/07 01:31:49;;;;;;;21.57;15.60;;;;;;;2.06;100.00;101638.59;5266498;28;20117;-77
2022/12/07 01:34:20;;;;;;;21.02;16.60;;;;;;;2.09;100.00;101641.25;5266438;28;20071;-77
2022/12/07 01:36:52;;;;;;;22.70;15.93;;;;;;;2.13;100.00;101645.69;5284410;28;20537;-78
2022/12/07 01:39:24;;;;;;;26.13;17.03;;;;;;;2.15;100.00;101643.16;5284233;28;20495;-77
2022/12/07 01:41:55;;;;;;;21.05;15.57;;;;;;;2.26;100.00;101648.72;5284440;28;20464;-78
2022/12/07 01:44:32;;;;;;;25.03;16.03;;;;;;;2.22;100.00;101654.56;5284140;28;20062;-77
2022/12/07 01:47:04;;;;;;;18.13;15.88;;;;;;;2.24;100.00;101658.94;5284877;28;20074;-77
2022/12/07 01:49:41;;;;;;;17.90;15.03;;;;;;;2.24;100.00;101651.22;5283716;28;20468;-77
2022/12/07 01:52:24;;;;;;;22.23;15.45;;;;;;;2.25;100.00;101644.38;5284040;28;20338;-77
2022/12/07 01:55:01;;;;;;;;;;;;;;;2.30;100.00;101641.16;5284432;28;20036;-77
2022/12/07 01:57:34;;;;;;;20.10;15.57;;;;;;;2.28;100.00;101644.47;5284103;28;19913;-78
2022/12/07 02:00:07;;;;;;;22.40;16.20;;;;;;;2.25;100.00;101636.66;5283858;28;20117;-78
2022/12/07 02:02:48;;;;;;;17.13;15.25;;;;;;;2.21;100.00;101637.34;5283831;28;20060;-78
2022/12/07 02:05:19;;;;;;;23.60;15.38;;;;;;;2.17;100.00;101632.13;5283518;28;20025;-78
2022/12/07 02:07:54;;;;;;;24.93;15.67;;;;;;;2.19;100.00;101625.34;5283883;28;20024;-78
2022/12/07 02:10:28;;;;;;;22.23;15.60;;;;;;;2.18;100.00;101631.28;5283730;28;20173;-78
2022/12/07 02:13:12;;;;;;;20.88;15.65;;;;;;;2.17;100.00;101620.94;5283653;28;20031;-78
2022/12/07 02:16:00;;;;;;;23.33;15.75;;;;;;;2.17;100.00;101632.13;5284293;28;20110;-78
2022/12/07 02:18:53;;;;;;;18.23;15.32;;;;;;;2.18;100.00;101643.28;5283603;28;20028;-78
2022/12/07 02:21:54;;;;;;;18.85;15.60;;;;;;;2.19;100.00;101634.75;5283919;28;20074;-78
2022/12/07 02:24:45;;;;;;;22.55;16.08;;;;;;;2.13;100.00;101630.25;5283802;28;20028;-78
2022/12/07 02:27:22;;;;;;;21.90;15.02;;;;;;;2.10;100.00;101632.72;5283819;28;20035;-77
2022/12/07 02:30:00;;;;;;;22.75;16.08;;;;;;;2.10;100.00;101635.28;5283728;28;20021;-78
2022/12/07 02:32:43;;;;;;;20.20;15.27;;;;;;;2.06;100.00;101633.44;5283531;28;20062;-78
2022/12/07 02:35:18;;;;;;;;;;;;;;;2.00;100.00;101628.09;5284124;28;20039;-77
2022/12/07 02:38:01;;;;;;;19.38;13.55;;;;;;;1.94;100.00;101623.56;5283403;28;19935;-77
2022/12/07 02:40:49;;;;;;;22.20;13.95;;;;;;;1.90;100.00;101624.31;5283404;28;20060;-77
2022/12/07 02:43:50;;;;;;;22.30;14.10;;;;;;;1.88;100.00;101625.06;5283312;28;20029;-79
2022/12/07 02:46:36;;;;;;;22.63;14.57;;;;;;;1.91;100.00;101630.31;5280653;28;20476;-78
2022/12/07 02:49:08;;;;;;;28.88;15.45;;;;;;;1.91;100.00;101627.75;5265463;28;20466;-79
2022/12/07 02:51:43;;;;;;;23.58;15.20;;;;;;;1.91;100.00;101627.75;5261029;28;20487;-79
2022/12/07 02:54:17;;;;;;;18.45;15.50;;;;;;;2.02;100.00;101626.44;5262067;28;20044;-80
2022/12/07 02:57:00;;;;;;;24.33;16.10;;;;;;;2.03;100.00;101627.28;5262762;28;20029;-80
2022/12/07 02:59:37;;;;;;;21.55;15.57;;;;;;;2.03;100.00;101628.19;5262287;28;20041;-77
2022/12/07 03:02:08;;;;;;;24.52;15.52;;;;;;;2.05;100.00;101626.53;5262615;28;20036;-77
2022/12/07 03:04:47;;;;;;;21.93;15.10;;;;;;;1.98;100.00;101627.13;5262054;28;20029;-77
2022/12/07 03:07:43;;;;;;;19.75;14.48;;;;;;;1.97;100.00;101631.41;5262713;28;20040;-78
2022/12/07 03:10:22;;;;;;;21.23;13.88;;;;;;;1.98;100.00;101630.59;5266402;28;20040;-77
2022/12/07 03:13:10;;;;;;;17.63;13.32;;;;;;;1.89;100.00;101622.53;5266320;28;20060;-77
2022/12/07 03:16:09;;;;;;;19.40;14.38;;;;;;;1.87;100.00;101624.19;5266337;28;20120;-77
2022/12/07 03:18:44;;;;;;;22.15;13.55;;;;;;;1.82;100.00;101628.28;5266032;28;20091;-77
2022/12/07 03:21:22;;;;;;;18.25;12.90;;;;;;;1.76;100.00;101628.94;5266440;28;20120;-77
2022/12/07 03:23:58;;;;;;;18.92;13.15;;;;;;;1.74;100.00;101633.16;5266188;28;20035;-78
2022/12/07 03:26:38;;;;;;;20.23;13.05;;;;;;;1.69;100.00;101619.25;5266343;28;20025;-78
2022/12/07 03:29:13;;;;;;;17.40;12.75;;;;;;;1.75;100.00;101621.16;5266108;28;20353;-84
2022/12/07 03:31:52;;;;;;;19.83;12.63;;;;;;;1.71;100.00;101611.59;5265769;28;20111;-78
2022/12/07 03:34:34;;;;;;;18.77;13.70;;;;;;;1.65;100.00;101619.94;5265649;28;20048;-77
2022/12/07 03:37:17;;;;;;;17.48;12.70;;;;;;;1.61;100.00;101623.22;5264871;28;20043;-77
2022/12/07 03:39:58;;;;;;;;;;;;;;;1.63;100.00;101629.31;5265950;28;20023;-77
2022/12/07 03:42:32;;;;;;;21.27;13.15;;;;;;;1.77;100.00;101622.97;5265902;28;20423;-76
2022/12/07 03:45:06;;;;;;;20.73;13.90;;;;;;;1.82;100.00;101618.00;5265307;28;20492;-76
2022/12/07 03:47:40;;;;;;;17.75;12.95;;;;;;;1.88;100.00;101625.06;5265966;28;20417;-77
2022/12/07 03:50:26;;;;;;;19.00;13.32;;;;;;;1.88;100.00;101622.50;5272093;28;20044;-76
2022/12/07 03:53:22;;;;;;;20.00;13.35;;;;;;;1.88;100.00;101620.78;5286799;28;20467;-76
2022/12/07 03:55:54;;;;;;;22.73;13.90;;;;;;;1.95;100.00;101624.47;5286616;28;20033;-76
2022/12/07 03:58:27;;;;;;;16.65;13.07;;;;;;;1.92;100.00;101619.22;5286299;28;20510;-76
2022/12/07 04:00:58;;;;;;;21.40;12.40;;;;;;;1.97;100.00;101623.69;5268877;28;20036;-78
2022/12/07 04:03:30;;;;;;;19.20;13.53;;;;;;;1.98;100.00;101625.44;5286177;28;20506;-79
2022/12/07 04:06:01;;;;;;;22.00;13.30;;;;;;;2.01;100.00;101622.09;5286032;28;20056;-75
2022/12/07 04:08:33;;;;;;;21.27;12.83;;;;;;;2.08;100.00;101612.94;5286338;28;20062;-80
2022/12/07 04:11:04;;;;;;;18.17;13.13;;;;;;;2.06;100.00;101604.25;5268196;28;20037;-80
2022/12/07 04:14:18;;;;;;;15.53;12.43;;;;;;;2.14;100.00;101618.25;5286042;28;20039;-77
2022/12/07 04:16:27;;;;;;;17.92;12.88;;;;;;;2.17;100.00;101614.13;5285470;28;20037;-77
2022/12/07 04:18:58;;;;;;;19.43;12.77;;;;;;;2.21;100.00;101614.19;5284276;28;20034;-77
2022/12/07 04:21:29;;;;;;;19.17;11.87;;;;;;;2.23;100.00;101615.16;5285824;28;20063;-77
2022/12/07 04:24:01;;;;;;;15.70;11.63;;;;;;;2.26;100.00;101620.41;5285431;28;20032;-77
2022/12/07 04:26:32;;;;;;;19.27;13.07;;;;;;;2.26;100.00;101625.56;5285486;28;20064;-76
2022/12/07 04:29:03;;;;;;;16.30;12.27;;;;;;;2.30;100.00;101620.56;5285709;28;20033;-77
2022/12/07 04:31:35;;;;;;;15.90;12.13;;;;;;;2.30;100.00;101612.84;5285892;28;20032;-77
2022/12/07 04:34:07;;;;;;;15.53;11.13;;;;;;;2.32;100.00;101611.19;5267663;28;20124;-77
2022/12/07 04:36:39;;;;;;;18.57;12.30;;;;;;;2.33;100.00;101602.63;5285825;28;20103;-77
2022/12/07 04:39:18;;;;;;;24.58;12.63;;;;;;;2.36;100.00;101601.88;5250911;28;20472;-77
2022/12/07 04:41:50;;;;;;;17.00;11.65;;;;;;;2.39;100.00;101601.97;5285436;28;20028;-76
2022/12/07 04:44:22;;;;;;;17.33;13.82;;;;;;;2.40;100.00;101603.75;5285573;28;20078;-77
2022/12/07 04:46:54;;;;;;;18.08;12.52;;;;;;;2.43;100.00;101600.38;5285361;28;20037;-77
2022/12/07 04:49:26;;;;;;;19.75;11.93;;;;;;;2.45;100.00;101604.78;5285275;28;20130;-76
2022/12/07 04:51:57;;;;;;;18.17;12.33;;;;;;;2.47;100.00;101608.25;5283762;28;20121;-77
2022/12/07 04:54:28;;;;;;;18.93;12.20;;;;;;;2.48;100.00;101602.31;5285479;28;20075;-79
2022/12/07 04:57:00;;;;;;;18.43;12.73;;;;;;;2.47;100.00;101612.53;5285615;28;20471;-78
2022/12/07 04:59:31;;;;;;;20.83;12.73;;;;;;;2.46;100.00;101603.94;5285217;28;20122;-79
2022/12/07 05:02:02;;;;;;;20.23;11.93;;;;;;;2.51;100.00;101592.13;5284693;28;20039;-77
2022/12/07 05:04:34;;;;;;;17.87;13.07;;;;;;;2.48;100.00;101591.09;5285147;28;20037;-78
2022/12/07 05:07:05;;;;;;;25.97;12.40;;;;;;;2.49;100.00;101590.31;5284954;28;20108;-77
2022/12/07 05:09:36;;;;;;;17.10;12.60;;;;;;;2.55;100.00;101593.09;5285227;28;20028;-79
2022/12/07 05:12:08;;;;;;;19.13;12.90;;;;;;;2.53;100.00;101589.59;5284633;28;20483;-79
2022/12/07 05:14:39;;;;;;;21.93;11.67;;;;;;;2.56;100.00;101600.00;5285145;28;20115;-79
2022/12/07 05:17:11;;;;;;;20.40;11.70;;;;;;;2.53;100.00;101585.31;5284623;28;20025;-80
2022/12/07 05:19:42;;;;;;;17.63;11.93;;;;;;;2.54;100.00;101592.22;5284803;28;20039;-80
2022/12/07 05:22:15;;;;;;;19.47;11.93;;;;;;;2.56;100.00;101592.28;5284606;28;20103;-79
2022/12/07 05:24:46;;;;;;;18.02;12.32;;;;;;;2.51;100.00;101592.13;5266696;28;20036;-79
2022/12/07 05:27:17;;;;;;;16.17;11.23;;;;;;;2.53;100.00;101593.03;5284384;28;20029;-79
2022/12/07 05:29:52;;;;;;;18.00;10.57;;;;;;;2.54;100.00;101592.22;5284591;28;20024;-79
2022/12/07 05:32:24;;;;;;;18.65;12.18;;;;;;;2.47;100.00;101600.53;5266557;28;20079;-79
2022/12/07 05:34:55;;;;;;;15.87;10.37;;;;;;;2.45;100.00;101593.63;5284622;28;20058;-80
2022/12/07 05:37:26;;;;;;;19.40;11.63;;;;;;;2.36;100.00;101587.31;5284222;28;20032;-79
2022/12/07 05:39:58;;;;;;;20.23;10.40;;;;;;;2.33;100.00;101597.50;5284381;28;20384;-78
2022/12/07 05:42:29;;;;;;;15.17;10.30;;;;;;;2.27;100.00;101596.41;5284360;28;20033;-74
2022/12/07 05:45:00;;;;;;;13.43;8.93;;;;;;;2.18;100.00;101589.28;5283867;28;20344;-75
2022/12/07 05:47:32;;;;;;;13.37;9.20;;;;;;;2.10;100.00;101586.41;5284037;28;20348;-74
2022/12/07 05:50:05;;;;;;;16.07;9.23;;;;;;;1.95;100.00;101585.91;5284841;28;20045;-72
2022/12/07 05:52:36;;;;;;;17.38;9.85;;;;;;;1.91;100.00;101590.03;5267137;28;20040;-73
2022/12/07 05:55:08;;;;;;;17.70;9.50;;;;;;;1.85;100.00;101578.66;5284831;28;20380;-73
2022/12/07 05:57:39;;;;;;;14.07;9.13;;;;;;;1.72;100.00;101585.94;5266441;28;20024;-73
2022/12/07 06:00:11;;;;;;;14.17;8.83;;;;;;;1.60;100.00;101578.66;5284181;28;20367;-72
2022/12/07 06:02:42;;;;;;;18.88;8.50;;;;;;;1.54;100.00;101577.56;5283772;28;20035;-73
2022/12/07 06:05:14;;;;;;;17.70;9.30;;;;;;;1.54;100.00;101583.56;5250290;28;20041;-73
2022/12/07 06:07:45;;;;;;;12.27;9.17;;;;;;;1.45;100.00;101586.69;5265950;28;20024;-73
2022/12/07 06:10:16;;;;;;;20.07;9.70;;;;;;;1.54;100.00;101587.84;5283481;28;20112;-73
2022/12/07 06:12:48;;;;;;;14.50;9.67;;;;;;;1.48;100.00;101585.03;5265610;28;20028;-75
2022/12/07 06:15:19;;;;;;;17.57;10.50;;;;;;;1.44;100.00;101586.63;5284264;28;20029;-73
2022/12/07 06:17:51;;;;;;;19.33;10.73;;;;;;;1.39;100.00;101586.44;5284009;28;20032;-73
2022/12/07 06:20:22;;;;;;;15.33;10.13;;;;;;;1.38;100.00;101589.81;5266115;28;20127;-73
2022/12/07 06:22:53;;;;;;;20.43;12.30;;;;;;;1.48;100.00;101588.47;5283801;28;20052;-73
2022/12/07 06:25:25;;;;;;;22.20;11.83;;;;;;;1.43;100.00;101585.75;5283554;28;20039;-75
2022/12/07 06:27:56;;;;;;;20.17;11.50;;;;;;;1.34;100.00;101587.97;5283727;28;20036;-74
2022/12/07 06:30:27;;;;;;;23.73;13.10;;;;;;;1.43;100.00;101585.75;5283528;28;20475;-75
2022/12/07 06:32:59;;;;;;;23.40;13.27;;;;;;;1.46;100.00;101597.81;5283646;28;20477;-74
2022/12/07 06:35:32;;;;;;;20.73;13.87;;;;;;;1.41;100.00;101589.06;5284043;28;20032;-75
2022/12/07 06:38:04;;;;;;;17.13;12.60;;;;;;;1.42;100.00;101594.28;5283193;28;20094;-75
2022/12/07 06:40:35;;;;;;;23.00;15.90;;;;;;;1.46;100.00;101592.69;5265277;28;20028;-75
2022/12/07 06:43:07;;;;;;;22.80;15.07;;;;;;;1.53;100.00;101598.91;5264608;28;20047;-75
2022/12/07 06:45:40;;;;;;;23.27;14.75;;;;;;;1.65;100.00;101604.53;5283235;28;20475;-75
2022/12/07 06:48:11;;;;;;;;;;;;;;;1.65;100.00;101601.97;5283552;28;20028;-75
2022/12/07 06:50:47;;;;;;;21.08;12.48;;;;;;;1.65;100.00;101594.25;5282914;28;19972;-75
2022/12/07 06:53:18;;;;;;;19.08;13.35;;;;;;;1.68;100.00;101596.94;5283612;28;20020;-75
2022/12/07 06:55:50;;;;;;;16.57;12.77;;;;;;;1.66;100.00;101584.84;5283383;28;20029;-75
2022/12/07 06:58:21;;;;;;;23.17;13.17;;;;;;;1.68;100.00;101593.50;5282865;28;20029;-73
2022/12/07 07:00:53;;;;;;;19.30;12.07;;;;;;;1.65;100.00;101586.53;5283545;28;20434;-75
2022/12/07 07:03:24;;;;;;;18.93;11.47;;;;;;;1.65;100.00;101586.53;5283094;28;20033;-75
2022/12/07 07:05:56;;;;;;;21.50;12.37;;;;;;;1.60;100.00;101585.50;5283241;28;20044;-74
2022/12/07 07:08:27;;;;;;;19.83;11.90;;;;;;;1.62;100.00;101594.13;5282679;28;20021;-73
2022/12/07 07:10:58;;;;;;;22.83;10.93;;;;;;;1.54;100.00;101598.13;5283555;28;20044;-74
2022/12/07 07:13:30;;;;;;;18.63;12.97;;;;;;;1.50;100.00;101598.81;5282527;28;20067;-74
2022/12/07 07:16:02;;;;;;;22.97;11.10;;;;;;;1.49;100.00;101597.94;5282869;28;20418;-74
2022/12/07 07:18:33;;;;;;;19.73;12.57;;;;;;;1.50;100.00;101598.81;5283555;28;20039;-74
2022/12/07 07:21:04;;;;;;;13.10;10.20;;;;;;;1.49;100.00;101597.06;5282448;28;20029;-75
2022/12/07 07:23:36;;;;;;;18.67;12.57;;;;;;;1.51;100.00;101603.13;5282938;28;20040;-74
2022/12/07 07:26:07;;;;;;;16.30;10.80;;;;;;;1.49;100.00;101602.22;5282806;28;20036;-74
2022/12/07 07:28:39;;;;;;;16.77;11.77;;;;;;;1.52;100.00;101607.47;5282532;28;20053;-74
2022/12/07 07:31:10;;;;;;;19.37;12.10;;;;;;;1.53;100.00;101606.63;5282909;28;20435;-74
2022/12/07 07:33:41;;;;;;;19.33;11.50;;;;;;;1.57;100.00;101608.50;5282635;28;20460;-73
2022/12/07 07:36:13;;;;;;;19.80;11.80;;;;;;;1.57;100.00;101603.38;5264702;28;20033;-74
2022/12/07 07:38:44;;;;;;;17.30;12.90;;;;;;;1.62;100.00;101600.13;5264646;28;20061;-74
2022/12/07 07:41:15;;;;;;;17.80;11.97;;;;;;;1.64;100.00;101602.75;5264417;28;20111;-74
2022/12/07 07:43:47;;;;;;;23.80;11.93;;;;;;;1.64;100.00;101607.91;5282242;28;20062;-73
2022/12/07 07:46:18;;;;;;;18.53;12.00;;;;;;;1.62;100.00;101605.28;5282174;28;20119;-74
2022/12/07 07:48:49;;;;;;;19.53;12.03;;;;;;;1.61;100.00;101608.69;5282265;28;20056;-73
2022/12/07 07:51:21;;;;;;;25.27;11.80;;;;;;;1.60;100.00;101603.50;5280362;28;20048;-74
2022/12/07 07:53:52;;;;;;;23.87;12.53;;;;;;;1.60;100.00;101611.19;5284994;28;20055;-73
2022/12/07 07:56:24;;;;;;;20.83;12.17;;;;;;;1.63;100.00;101606.19;5285958;28;20158;-74
2022/12/07 07:58:55;;;;;;;19.03;11.60;;;;;;;1.67;100.00;101607.16;5285926;28;20040;-74
2022/12/07 08:01:26;;;;;;;16.70;10.73;;;;;;;1.69;100.00;101608.06;5286194;28;20029;-74
2022/12/07 08:03:58;;;;;;;15.00;10.30;;;;;;;1.64;100.00;101606.22;5285766;28;20042;-74
2022/12/07 08:06:29;;;;;;;16.57;10.37;;;;;;;1.63;100.00;101603.59;5285781;28;20032;-74
2022/12/07 08:09:02;;;;;;;20.77;10.87;;;;;;;1.60;100.00;101613.78;5286055;28;20035;-74
2022/12/07 08:11:33;;;;;;;16.20;9.73;;;;;;;1.59;100.00;101607.72;5285708;28;20036;-74
2022/12/07 08:14:05;;;;;;;24.53;10.90;;;;;;;1.57;100.00;101616.22;5286264;28;20479;-74
2022/12/07 08:16:37;;;;;;;17.90;9.80;;;;;;;1.55;100.00;101621.31;5285312;28;20112;-74
2022/12/07 08:19:08;;;;;;;16.48;10.50;;;;;;;1.53;100.00;101615.25;5285915;28;20043;-74
2022/12/07 08:21:40;;;;;;;14.67;9.63;;;;;;;1.54;100.00;101621.25;5285739;28;20029;-74
2022/12/07 08:24:11;;;;;;;23.17;10.40;;;;;;;1.54;100.00;101629.81;5285772;28;20029;-74
2022/12/07 08:26:43;;;;;;;17.00;10.87;;;;;;;1.60;100.00;101627.47;5285638;28;20541;-74
2022/12/07 08:29:14;;;;;;;25.63;11.33;;;;;;;1.66;100.00;101624.28;5285556;28;20029;-74
2022/12/07 08:31:45;;;;;;;23.00;9.63;;;;;;;1.77;100.00;101633.28;5267391;28;20525;-74
2022/12/07 08:34:17;;;;;;;15.60;10.07;;;;;;;1.81;100.00;101629.97;5285397;28;20420;-74
2022/12/07 08:36:48;;;;;;;16.93;9.73;;;;;;;1.86;100.00;101630.16;5268219;28;20056;-74
2022/12/07 08:39:20;;;;;;;15.87;9.23;;;;;;;1.96;100.00;101641.63;5285040;28;20032;-74
2022/12/07 08:41:51;;;;;;;19.37;9.83;;;;;;;2.02;100.00;101641.84;5285576;28;20414;-74
2022/12/07 08:44:22;;;;;;;15.87;8.83;;;;;;;2.13;100.00;101634.53;5285201;28;20024;-74
2022/12/07 08:46:57;;;;;;;14.90;8.33;;;;;;;2.25;100.00;101650.38;5285101;28;20032;-74
2022/12/07 08:49:36;;;;;;;17.23;8.07;;;;;;;2.43;100.00;101642.44;5267075;28;20029;-75
2022/12/07 08:52:07;;;;;;;19.50;8.10;;;;;;;2.59;100.00;101635.22;5285215;28;20107;-74
2022/12/07 08:54:40;;;;;;;13.40;7.47;;;;;;;2.70;100.00;101634.75;5285536;28;20462;-74
2022/12/07 08:57:12;;;;;;;11.82;6.53;;;;;;;2.72;100.00;101637.38;5285555;28;20363;-74
2022/12/07 08:59:43;;;;;;;17.73;7.50;;;;;;;2.79;100.00;101634.19;5285141;28;20112;-74
2022/12/07 09:02:15;;;;;;;16.13;6.37;;;;;;;2.79;100.00;101629.06;5284818;28;20036;-74
2022/12/07 09:04:46;;;;;;;10.30;6.17;;;;;;;2.81;100.00;101618.81;5283946;28;20021;-75
2022/12/07 09:07:18;;;;;;;13.53;6.17;;;;;;;2.88;100.00;101629.34;5267435;28;20043;-75
2022/12/07 09:09:49;;;;;;;15.40;6.77;;;;;;;2.90;100.00;101632.84;5284769;28;20056;-75
2022/12/07 09:12:20;;;;;;;14.43;6.00;;;;;;;2.95;100.00;101624.38;5284952;28;20040;-75
2022/12/07 09:14:52;;;;;;;21.90;7.03;;;;;;;2.99;100.00;101621.09;5284518;28;20036;-75
2022/12/07 09:17:24;;;;;;;12.03;5.53;;;;;;;3.08;100.00;101618.81;5249867;28;20032;-78
2022/12/07 09:19:55;;;;;;;11.85;6.05;;;;;;;3.20;100.00;101620.88;5284467;28;20353;-74
2022/12/07 09:22:30;;;;;;;19.57;6.77;;;;;;;3.27;100.00;101628.00;5284723;28;20063;-73
2022/12/07 09:25:03;;;;;;;13.88;5.13;;;;;;;3.37;100.00;101629.16;5284381;28;20043;-74
2022/12/07 09:27:35;;;;;;;13.68;6.00;;;;;;;3.35;100.00;101621.38;5284622;28;20549;-76
2022/12/07 09:30:07;;;;;;;14.03;6.00;;;;;;;3.32;100.00;101613.53;5284564;28;20060;-74
2022/12/07 09:32:38;;;;;;;15.40;5.67;;;;;;;3.29;100.00;101618.59;5283843;28;20024;-75
2022/12/07 09:35:10;;;;;;;14.87;5.67;;;;;;;3.22;100.00;101624.38;5284781;28;20380;-74
2022/12/07 09:37:41;;;;;;;12.00;4.83;;;;;;;3.12;100.00;101628.38;5266889;28;20460;-76
2022/12/07 09:40:14;;;;;;;15.90;5.93;;;;;;;3.04;100.00;101632.41;5283841;28;20035;-75
2022/12/07 09:42:48;;;;;;;;;;;;;;;3.05;100.00;101627.31;5284723;28;20039;-76
2022/12/07 09:45:27;;;;;;;13.93;5.85;;;;;;;3.20;100.00;101624.31;5283963;28;19916;-75
2022/12/07 09:47:59;;;;;;;12.82;6.28;;;;;;;3.50;100.00;101626.09;5266385;28;20086;-75
2022/12/07 09:50:30;;;;;;;13.32;6.68;;;;;;;3.69;100.00;101622.34;5284056;28;20053;-75
2022/12/07 09:53:14;;;;;;;16.73;5.13;;;;;;;4.11;100.00;101629.53;5284146;28;20106;-75
2022/12/07 09:55:46;;;;;;;10.23;4.85;;;;;;;4.63;100.00;101629.16;5283915;28;20024;-75
2022/12/07 09:58:24;;;;;;;14.03;6.40;;;;;;;5.19;100.00;101633.97;5266029;28;20037;-75
2022/12/07 10:00:59;;;;;;;10.25;5.05;;;;;;;6.15;100.00;101629.06;5284036;28;20028;-75
2022/12/07 10:03:31;;;;;;;7.45;3.45;;;;;;;6.53;100.00;101623.72;5284036;28;20490;-75
2022/12/07 10:06:05;;;;;;;11.20;3.50;;;;;;;6.16;96.23;101626.50;5283949;28;20032;-73
2022/12/07 10:08:36;;;;;;;10.88;4.20;;;;;;;5.96;97.33;101622.66;5283976;28;20032;-75
2022/12/07 10:11:10;;;;;;;10.93;4.33;;;;;;;6.03;99.17;101621.97;5283607;28;20032;-73
2022/12/07 10:13:48;;;;;;;10.88;4.35;;;;;;;5.71;96.72;101614.38;5283539;28;20059;-73
2022/12/07 10:16:40;;;;;;;8.95;3.60;;;;;;;5.60;98.53;101610.72;5282843;28;20027;-74
2022/12/07 10:19:25;;;;;;;10.50;5.22;;;;;;;6.06;99.24;101611.66;5283510;28;20024;-74
2022/12/07 10:22:04;;;;;;;9.63;3.67;;;;;;;7.11;96.88;101603.06;5265793;28;20025;-74
2022/12/07 10:24:39;;;;;;;7.30;3.38;;;;;;;7.19;91.04;101608.34;5283296;28;20115;-74
2022/12/07 10:27:18;;;;;;;10.48;3.25;;;;;;;7.39;90.76;101608.63;5265971;28;20473;-74
2022/12/07 10:29:52;;;;;;;12.20;2.88;;;;;;;7.19;88.39;101610.94;5283386;28;20040;-74
2022/12/07 10:32:41;;;;;;;9.25;2.92;;;;;;;6.97;87.67;101596.78;5283064;28;20028;-75
2022/12/07 10:35:29;;;;;;;13.25;3.70;;;;;;;6.54;89.81;101592.69;5283677;28;20035;-76
2022/12/07 10:38:00;;;;;;;9.55;3.50;;;;;;;6.22;90.80;101593.84;5283091;28;20078;-74
2022/12/07 10:40:36;;;;;;;11.93;4.10;;;;;;;6.06;91.21;101587.50;5283354;28;20057;-74
2022/12/07 10:43:13;;;;;;;7.03;2.78;;;;;;;6.39;92.22;101589.81;5265208;28;20032;-75
2022/12/07 10:45:50;;;;;;;11.52;3.00;;;;;;;6.64;90.09;101596.28;5283310;28;20060;-75
2022/12/07 10:48:34;;;;;;;9.40;3.63;;;;;;;7.38;89.33;101587.00;5283005;28;20032;-75
2022/12/07 10:51:08;;;;;;;10.68;2.90;;;;;;;7.87;85.64;101585.88;5283162;28;20463;-75
2022/12/07 10:54:04;;;;;;;9.88;3.88;;;;;;;8.55;81.97;101588.31;5283148;28;20029;-75
2022/12/07 10:56:45;;;;;;;9.48;3.75;;;;;;;8.28;81.00;101581.09;5282817;28;20033;-75
2022/12/07 10:59:39;;;;;;;8.93;3.10;;;;;;;7.96;81.58;101584.25;5283110;28;20351;-73
2022/12/07 11:02:19;;;;;;;12.23;3.67;;;;;;;8.30;81.12;101571.59;5283498;28;20055;-73
2022/12/07 11:05:14;;;;;;;10.02;2.80;;;;;;;8.54;82.35;101559.72;5283441;28;20098;-73
2022/12/07 11:07:58;;;;;;;11.55;3.05;;;;;;;8.31;81.40;101564.69;5271546;28;20072;-73
2022/12/07 11:10:39;;;;;;;9.45;3.17;;;;;;;7.65;80.88;101562.28;5283020;28;20025;-74
2022/12/07 11:13:25;;;;;;;7.40;3.35;;;;;;;7.24;83.18;101566.06;5283182;28;20029;-74
2022/12/07 11:16:08;;;;;;;16.55;4.82;;;;;;;6.92;85.62;101553.56;5282752;28;20039;-74
2022/12/07 11:19:04;;;;;;;8.57;3.17;;;;;;;6.86;86.70;101545.69;5283049;28;20509;-74
2022/12/07 11:21:57;;;;;;;12.43;4.53;;;;;;;6.61;87.76;101552.19;5283201;28;20029;-74
2022/12/07 11:25:00;;;;;;;15.18;3.25;;;;;;;6.50;88.63;101545.97;5282730;28;20025;-73
2022/12/07 11:27:48;;;;;;;8.73;2.90;;;;;;;6.62;88.26;101541.00;5283755;28;20033;-74
2022/12/07 11:30:43;;;;;;;10.25;3.10;;;;;;;6.54;88.86;101543.47;5286714;28;20035;-74
2022/12/07 11:33:50;;;;;;;8.25;3.55;;;;;;;6.37;89.78;101542.31;5285639;28;20434;-74
2022/12/07 11:36:40;;;;;;;9.90;3.33;;;;;;;6.35;90.17;101538.81;5260446;28;20055;-75
2022/12/07 11:39:39;;;;;;;7.95;3.40;;;;;;;6.51;90.63;101533.03;5287115;28;20104;-75
2022/12/07 11:42:15;;;;;;;10.52;3.67;;;;;;;6.55;89.51;101528.78;5286367;28;20064;-75
2022/12/07 11:44:56;;;;;;;11.65;3.15;;;;;;;6.73;91.03;101529.06;5286589;28;20050;-75
2022/12/07 11:47:43;;;;;;;18.38;3.60;;;;;;;6.61;89.91;101528.00;5286439;28;20107;-74
2022/12/07 11:50:40;;;;;;;11.43;3.42;;;;;;;6.45;92.64;101532.09;5284087;28;20028;-73